sensor_id;sensor_type;location;lat;lon;timestamp;pressure;altitude;pressure_sealevel;temperature;humidity
78431;BME280;67727;50.236;22.452;2023-07-31T00:01:40;99136.29;;;19.62;72.00
78431;BME280;67727;50.236;22.452;2023-07-31T00:04:07;99137.79;;;19.59;72.11
78431;BME280;67727;50.236;22.452;2023-07-31T00:06:34;99138.11;;;19.53;72.08
78431;BME280;67727;50.236;22.452;2023-07-31T00:09:01;99135.52;;;19.48;72.22
78431;BME280;67727;50.236;22.452;2023-07-31T00:11:28;99135.10;;;19.45;72.43
78431;BME280;67727;50.236;22.452;2023-07-31T00:13:55;99134.32;;;19.42;72.61
78431;BME280;67727;50.236;22.452;2023-07-31T00:16:21;99141.20;;;19.42;72.54
78431;BME280;67727;50.236;22.452;2023-07-31T00:18:48;99137.23;;;19.42;72.85
78431;BME280;67727;50.236;22.452;2023-07-31T00:21:15;99139.71;;;19.41;72.94
78431;BME280;67727;50.236;22.452;2023-07-31T00:23:42;99142.44;;;19.40;72.96
78431;BME280;67727;50.236;22.452;2023-07-31T00:26:09;99136.76;;;19.36;72.88
78431;BME280;67727;50.236;22.452;2023-07-31T00:28:35;99135.94;;;19.32;72.99
78431;BME280;67727;50.236;22.452;2023-07-31T00:31:02;99136.84;;;19.30;73.00
78431;BME280;67727;50.236;22.452;2023-07-31T00:33:31;99131.02;;;19.28;73.12
78431;BME280;67727;50.236;22.452;2023-07-31T00:35:58;99134.21;;;19.27;73.15
78431;BME280;67727;50.236;22.452;2023-07-31T00:38:25;99131.05;;;19.28;73.30
78431;BME280;67727;50.236;22.452;2023-07-31T00:40:52;99129.48;;;19.30;73.25
78431;BME280;67727;50.236;22.452;2023-07-31T00:43:18;99129.16;;;19.31;73.15
78431;BME280;67727;50.236;22.452;2023-07-31T00:45:45;99130.98;;;19.31;73.02
78431;BME280;67727;50.236;22.452;2023-07-31T00:48:12;99130.05;;;19.28;73.05
78431;BME280;67727;50.236;22.452;2023-07-31T00:50:39;99135.42;;;19.26;73.23
78431;BME280;67727;50.236;22.452;2023-07-31T00:53:06;99140.19;;;19.23;73.42
78431;BME280;67727;50.236;22.452;2023-07-31T00:55:33;99136.98;;;19.21;73.46
78431;BME280;67727;50.236;22.452;2023-07-31T00:58:00;99130.43;;;19.19;73.43
78431;BME280;67727;50.236;22.452;2023-07-31T01:00:27;99129.09;;;19.19;73.52
78431;BME280;67727;50.236;22.452;2023-07-31T01:02:53;99123.45;;;19.19;73.49
78431;BME280;67727;50.236;22.452;2023-07-31T01:05:25;99126.94;;;19.18;73.38
78431;BME280;67727;50.236;22.452;2023-07-31T01:10:56;99126.88;;;19.11;73.60
78431;BME280;67727;50.236;22.452;2023-07-31T01:13:25;99128.40;;;19.06;73.77
78431;BME280;67727;50.236;22.452;2023-07-31T01:15:52;99129.65;;;18.99;73.79
78431;BME280;67727;50.236;22.452;2023-07-31T01:18:19;99134.00;;;18.95;73.93
78431;BME280;67727;50.236;22.452;2023-07-31T01:20:54;99135.89;;;18.92;73.97
78431;BME280;67727;50.236;22.452;2023-07-31T01:23:35;99136.19;;;18.91;74.14
78431;BME280;67727;50.236;22.452;2023-07-31T01:26:19;99127.98;;;18.88;74.11
78431;BME280;67727;50.236;22.452;2023-07-31T01:29:02;99126.58;;;18.85;74.24
78431;BME280;67727;50.236;22.452;2023-07-31T01:31:31;99124.59;;;18.82;74.13
78431;BME280;67727;50.236;22.452;2023-07-31T01:34:02;99128.88;;;18.77;74.27
78431;BME280;67727;50.236;22.452;2023-07-31T01:36:32;99125.41;;;18.72;74.33
78431;BME280;67727;50.236;22.452;2023-07-31T01:39:00;99127.09;;;18.69;74.47
78431;BME280;67727;50.236;22.452;2023-07-31T01:41:27;99130.10;;;18.67;74.45
78431;BME280;67727;50.236;22.452;2023-07-31T01:43:54;99132.41;;;18.66;74.20
78431;BME280;67727;50.236;22.452;2023-07-31T01:46:22;99133.69;;;18.64;74.54
78431;BME280;67727;50.236;22.452;2023-07-31T01:48:50;99137.43;;;18.61;74.64
78431;BME280;67727;50.236;22.452;2023-07-31T01:51:17;99129.11;;;18.57;74.55
78431;BME280;67727;50.236;22.452;2023-07-31T01:53:44;99132.52;;;18.53;74.78
78431;BME280;67727;50.236;22.452;2023-07-31T01:56:11;99133.76;;;18.49;74.83
78431;BME280;67727;50.236;22.452;2023-07-31T01:58:38;99137.68;;;18.48;74.87
78431;BME280;67727;50.236;22.452;2023-07-31T02:01:05;99136.64;;;18.47;74.76
78431;BME280;67727;50.236;22.452;2023-07-31T02:03:32;99135.92;;;18.44;74.89
78431;BME280;67727;50.236;22.452;2023-07-31T02:05:59;99136.86;;;18.43;74.90
78431;BME280;67727;50.236;22.452;2023-07-31T02:08:26;99138.36;;;18.40;74.88
78431;BME280;67727;50.236;22.452;2023-07-31T02:10:53;99143.73;;;18.37;75.11
78431;BME280;67727;50.236;22.452;2023-07-31T02:13:20;99142.64;;;18.34;75.19
78431;BME280;67727;50.236;22.452;2023-07-31T02:15:47;99141.05;;;18.32;75.18
78431;BME280;67727;50.236;22.452;2023-07-31T02:18:14;99139.48;;;18.30;75.15
78431;BME280;67727;50.236;22.452;2023-07-31T02:20:41;99141.29;;;18.30;75.22
78431;BME280;67727;50.236;22.452;2023-07-31T02:23:08;99145.14;;;18.29;75.35
78431;BME280;67727;50.236;22.452;2023-07-31T02:25:34;99147.25;;;18.30;75.48
78431;BME280;67727;50.236;22.452;2023-07-31T02:28:01;99149.92;;;18.30;75.59
78431;BME280;67727;50.236;22.452;2023-07-31T02:30:28;99145.38;;;18.28;75.66
78431;BME280;67727;50.236;22.452;2023-07-31T02:32:55;99151.54;;;18.24;75.60
78431;BME280;67727;50.236;22.452;2023-07-31T02:35:22;99152.77;;;18.19;75.53
78431;BME280;67727;50.236;22.452;2023-07-31T02:37:49;99154.39;;;18.16;75.64
78431;BME280;67727;50.236;22.452;2023-07-31T02:40:15;99156.00;;;18.13;75.70
78431;BME280;67727;50.236;22.452;2023-07-31T02:42:42;99154.42;;;18.12;75.77
78431;BME280;67727;50.236;22.452;2023-07-31T02:45:09;99158.84;;;18.10;75.61
78431;BME280;67727;50.236;22.452;2023-07-31T02:47:36;99159.36;;;18.09;75.91
78431;BME280;67727;50.236;22.452;2023-07-31T02:50:03;99162.58;;;18.07;75.79
78431;BME280;67727;50.236;22.452;2023-07-31T02:52:31;99159.70;;;18.02;75.83
78431;BME280;67727;50.236;22.452;2023-07-31T02:54:58;99160.02;;;18.00;76.19
78431;BME280;67727;50.236;22.452;2023-07-31T02:57:25;99169.02;;;17.99;76.09
78431;BME280;67727;50.236;22.452;2023-07-31T02:59:52;99163.13;;;17.97;76.21
78431;BME280;67727;50.236;22.452;2023-07-31T03:02:19;99163.02;;;17.95;76.14
78431;BME280;67727;50.236;22.452;2023-07-31T03:04:45;99169.69;;;17.92;76.07
78431;BME280;67727;50.236;22.452;2023-07-31T03:07:12;99167.33;;;17.88;76.36
78431;BME280;67727;50.236;22.452;2023-07-31T03:09:39;99168.87;;;17.84;76.57
78431;BME280;67727;50.236;22.452;2023-07-31T03:12:06;99174.73;;;17.81;76.67
78431;BME280;67727;50.236;22.452;2023-07-31T03:14:33;99176.11;;;17.79;76.43
78431;BME280;67727;50.236;22.452;2023-07-31T03:17:00;99179.95;;;17.78;76.64
78431;BME280;67727;50.236;22.452;2023-07-31T03:19:30;99181.91;;;17.79;76.78
78431;BME280;67727;50.236;22.452;2023-07-31T03:21:57;99182.34;;;17.80;76.57
78431;BME280;67727;50.236;22.452;2023-07-31T03:24:24;99183.38;;;17.81;76.57
78431;BME280;67727;50.236;22.452;2023-07-31T03:26:51;99182.62;;;17.80;76.76
78431;BME280;67727;50.236;22.452;2023-07-31T03:29:18;99180.73;;;17.80;76.73
78431;BME280;67727;50.236;22.452;2023-07-31T03:31:45;99181.83;;;17.81;76.87
78431;BME280;67727;50.236;22.452;2023-07-31T03:34:11;99177.38;;;17.83;76.97
78431;BME280;67727;50.236;22.452;2023-07-31T03:36:38;99178.80;;;17.87;76.85
78431;BME280;67727;50.236;22.452;2023-07-31T03:39:05;99178.65;;;17.93;76.82
78431;BME280;67727;50.236;22.452;2023-07-31T03:41:31;99177.35;;;17.97;76.62
78431;BME280;67727;50.236;22.452;2023-07-31T03:43:58;99173.84;;;17.99;76.73
78431;BME280;67727;50.236;22.452;2023-07-31T03:46:25;99176.40;;;18.01;76.76
78431;BME280;67727;50.236;22.452;2023-07-31T03:48:52;99174.14;;;18.03;76.83
78431;BME280;67727;50.236;22.452;2023-07-31T03:51:19;99178.95;;;18.05;76.82
78431;BME280;67727;50.236;22.452;2023-07-31T03:53:45;99182.02;;;18.08;76.72
78431;BME280;67727;50.236;22.452;2023-07-31T03:56:13;99183.16;;;18.14;76.71
78431;BME280;67727;50.236;22.452;2023-07-31T03:58:40;99185.63;;;18.19;76.62
78431;BME280;67727;50.236;22.452;2023-07-31T04:01:07;99181.67;;;18.27;76.74
78431;BME280;67727;50.236;22.452;2023-07-31T04:03:33;99182.65;;;18.33;76.62
78431;BME280;67727;50.236;22.452;2023-07-31T04:06:00;99181.04;;;18.41;76.99
78431;BME280;67727;50.236;22.452;2023-07-31T04:08:27;99180.11;;;18.51;77.68
78431;BME280;67727;50.236;22.452;2023-07-31T04:10:54;99183.58;;;18.67;78.02
78431;BME280;67727;50.236;22.452;2023-07-31T04:13:22;99183.75;;;18.90;78.04
78431;BME280;67727;50.236;22.452;2023-07-31T04:15:49;99188.00;;;19.12;76.88
78431;BME280;67727;50.236;22.452;2023-07-31T04:18:20;99190.27;;;19.34;75.98
78431;BME280;67727;50.236;22.452;2023-07-31T04:20:47;99187.54;;;19.53;76.02
78431;BME280;67727;50.236;22.452;2023-07-31T04:23:14;99190.73;;;19.71;75.48
78431;BME280;67727;50.236;22.452;2023-07-31T04:25:40;99196.61;;;19.86;74.75
78431;BME280;67727;50.236;22.452;2023-07-31T04:28:07;99193.63;;;19.97;74.61
78431;BME280;67727;50.236;22.452;2023-07-31T04:30:34;99192.96;;;20.07;73.91
78431;BME280;67727;50.236;22.452;2023-07-31T04:33:01;99193.27;;;20.11;73.01
78431;BME280;67727;50.236;22.452;2023-07-31T04:35:29;99193.74;;;20.16;72.98
78431;BME280;67727;50.236;22.452;2023-07-31T04:37:55;99194.27;;;20.33;73.55
78431;BME280;67727;50.236;22.452;2023-07-31T04:40:23;99199.05;;;20.54;73.07
78431;BME280;67727;50.236;22.452;2023-07-31T04:42:50;99196.49;;;20.79;72.47
78431;BME280;67727;50.236;22.452;2023-07-31T04:45:17;99193.30;;;21.01;72.07
78431;BME280;67727;50.236;22.452;2023-07-31T04:47:44;99193.96;;;21.18;71.45
78431;BME280;67727;50.236;22.452;2023-07-31T04:50:10;99192.22;;;21.39;71.47
78431;BME280;67727;50.236;22.452;2023-07-31T04:52:37;99194.14;;;21.63;69.98
78431;BME280;67727;50.236;22.452;2023-07-31T04:55:04;99192.95;;;21.82;69.81
78431;BME280;67727;50.236;22.452;2023-07-31T04:57:31;99193.83;;;21.98;68.96
78431;BME280;67727;50.236;22.452;2023-07-31T04:59:58;99190.12;;;22.01;67.63
78431;BME280;67727;50.236;22.452;2023-07-31T05:02:24;99191.19;;;22.00;67.47
78431;BME280;67727;50.236;22.452;2023-07-31T05:04:51;99192.09;;;21.95;67.01
78431;BME280;67727;50.236;22.452;2023-07-31T05:07:18;99190.13;;;21.89;66.98
78431;BME280;67727;50.236;22.452;2023-07-31T05:09:45;99191.02;;;21.84;67.20
78431;BME280;67727;50.236;22.452;2023-07-31T05:12:12;99195.45;;;21.78;66.88
78431;BME280;67727;50.236;22.452;2023-07-31T05:14:39;99195.13;;;21.75;67.09
78431;BME280;67727;50.236;22.452;2023-07-31T05:17:05;99195.52;;;21.70;67.07
78431;BME280;67727;50.236;22.452;2023-07-31T05:19:32;99197.56;;;21.67;66.80
78431;BME280;67727;50.236;22.452;2023-07-31T05:21:59;99194.87;;;21.67;67.45
78431;BME280;67727;50.236;22.452;2023-07-31T05:24:26;99196.16;;;21.70;67.42
78431;BME280;67727;50.236;22.452;2023-07-31T05:26:53;99199.11;;;21.74;66.90
78431;BME280;67727;50.236;22.452;2023-07-31T05:29:20;99201.08;;;21.68;66.43
78431;BME280;67727;50.236;22.452;2023-07-31T05:31:46;99197.75;;;21.63;66.84
78431;BME280;67727;50.236;22.452;2023-07-31T05:34:13;99199.61;;;21.59;67.28
78431;BME280;67727;50.236;22.452;2023-07-31T05:36:40;99199.16;;;21.56;67.06
78431;BME280;67727;50.236;22.452;2023-07-31T05:39:07;99203.85;;;21.55;67.03
78431;BME280;67727;50.236;22.452;2023-07-31T05:41:35;99203.20;;;21.62;67.10
78431;BME280;67727;50.236;22.452;2023-07-31T05:44:02;99207.36;;;21.83;67.54
78431;BME280;67727;50.236;22.452;2023-07-31T05:46:29;99206.80;;;22.10;66.93
78431;BME280;67727;50.236;22.452;2023-07-31T05:48:57;99209.60;;;22.34;64.18
78431;BME280;67727;50.236;22.452;2023-07-31T05:51:26;99203.92;;;22.47;64.22
78431;BME280;67727;50.236;22.452;2023-07-31T05:53:54;99209.30;;;22.66;64.67
78431;BME280;67727;50.236;22.452;2023-07-31T05:56:20;99211.73;;;22.87;64.67
78431;BME280;67727;50.236;22.452;2023-07-31T05:58:47;99221.21;;;23.07;64.04
78431;BME280;67727;50.236;22.452;2023-07-31T06:01:16;99222.77;;;23.20;62.81
78431;BME280;67727;50.236;22.452;2023-07-31T06:03:43;99227.45;;;23.25;62.53
78431;BME280;67727;50.236;22.452;2023-07-31T06:06:10;99234.90;;;23.19;61.58
78431;BME280;67727;50.236;22.452;2023-07-31T06:08:37;99239.07;;;23.06;61.73
78431;BME280;67727;50.236;22.452;2023-07-31T06:11:04;99245.48;;;22.95;61.90
78431;BME280;67727;50.236;22.452;2023-07-31T06:13:32;99240.75;;;22.85;62.28
78431;BME280;67727;50.236;22.452;2023-07-31T06:15:59;99237.69;;;22.76;62.84
78431;BME280;67727;50.236;22.452;2023-07-31T06:18:26;99243.58;;;22.74;62.86
78431;BME280;67727;50.236;22.452;2023-07-31T06:20:52;99246.50;;;22.73;63.05
78431;BME280;67727;50.236;22.452;2023-07-31T06:23:20;99243.90;;;22.78;63.59
78431;BME280;67727;50.236;22.452;2023-07-31T06:25:47;99245.20;;;22.88;63.41
78431;BME280;67727;50.236;22.452;2023-07-31T06:28:13;99245.59;;;22.95;62.82
78431;BME280;67727;50.236;22.452;2023-07-31T06:30:40;99250.73;;;22.99;62.89
78431;BME280;67727;50.236;22.452;2023-07-31T06:33:08;99252.02;;;23.03;62.84
78431;BME280;67727;50.236;22.452;2023-07-31T06:35:35;99254.21;;;23.15;63.27
78431;BME280;67727;50.236;22.452;2023-07-31T06:38:02;99241.38;;;23.37;63.07
78431;BME280;67727;50.236;22.452;2023-07-31T06:40:30;99238.33;;;23.69;63.08
78431;BME280;67727;50.236;22.452;2023-07-31T06:42:56;99239.77;;;24.05;62.32
78431;BME280;67727;50.236;22.452;2023-07-31T06:45:23;99238.05;;;24.26;61.33
78431;BME280;67727;50.236;22.452;2023-07-31T06:47:50;99242.09;;;24.42;60.91
78431;BME280;67727;50.236;22.452;2023-07-31T06:50:17;99236.55;;;24.64;59.64
78431;BME280;67727;50.236;22.452;2023-07-31T06:52:44;99234.27;;;24.87;59.47
78431;BME280;67727;50.236;22.452;2023-07-31T06:55:19;99234.86;;;25.07;59.11
78431;BME280;67727;50.236;22.452;2023-07-31T06:57:47;99233.27;;;25.32;59.18
78431;BME280;67727;50.236;22.452;2023-07-31T07:00:14;99239.14;;;25.53;57.05
78431;BME280;67727;50.236;22.452;2023-07-31T07:02:41;99239.11;;;25.61;56.80
78431;BME280;67727;50.236;22.452;2023-07-31T07:05:09;99241.54;;;25.64;56.83
78431;BME280;67727;50.236;22.452;2023-07-31T07:07:36;99242.71;;;25.66;55.93
78431;BME280;67727;50.236;22.452;2023-07-31T07:10:03;99240.32;;;25.66;55.16
78431;BME280;67727;50.236;22.452;2023-07-31T07:12:31;99238.20;;;25.75;55.56
78431;BME280;67727;50.236;22.452;2023-07-31T07:14:58;99235.91;;;25.90;56.94
78431;BME280;67727;50.236;22.452;2023-07-31T07:17:26;99236.21;;;26.03;54.51
78431;BME280;67727;50.236;22.452;2023-07-31T07:19:53;99231.59;;;25.98;53.74
78431;BME280;67727;50.236;22.452;2023-07-31T07:22:20;99232.39;;;26.00;54.02
78431;BME280;67727;50.236;22.452;2023-07-31T07:24:46;99231.48;;;26.08;55.05
78431;BME280;67727;50.236;22.452;2023-07-31T07:27:13;99232.27;;;26.32;54.49
78431;BME280;67727;50.236;22.452;2023-07-31T07:29:41;99231.02;;;26.37;52.78
78431;BME280;67727;50.236;22.452;2023-07-31T07:32:07;99232.38;;;26.31;53.74
78431;BME280;67727;50.236;22.452;2023-07-31T07:34:34;99230.56;;;26.16;52.53
78431;BME280;67727;50.236;22.452;2023-07-31T07:37:01;99235.85;;;25.91;53.94
78431;BME280;67727;50.236;22.452;2023-07-31T07:39:28;99236.01;;;25.87;55.76
78431;BME280;67727;50.236;22.452;2023-07-31T07:41:55;99232.48;;;25.97;55.59
78431;BME280;67727;50.236;22.452;2023-07-31T07:44:21;99232.34;;;26.17;55.56
78431;BME280;67727;50.236;22.452;2023-07-31T07:46:48;99236.08;;;26.31;55.27
78431;BME280;67727;50.236;22.452;2023-07-31T07:49:15;99234.09;;;26.44;55.88
78431;BME280;67727;50.236;22.452;2023-07-31T07:51:42;99234.46;;;26.79;55.95
78431;BME280;67727;50.236;22.452;2023-07-31T07:54:09;99233.92;;;27.20;55.55
78431;BME280;67727;50.236;22.452;2023-07-31T07:56:36;99232.79;;;27.45;53.01
78431;BME280;67727;50.236;22.452;2023-07-31T07:59:03;99232.98;;;27.24;52.00
78431;BME280;67727;50.236;22.452;2023-07-31T08:01:29;99227.31;;;27.15;53.58
78431;BME280;67727;50.236;22.452;2023-07-31T08:03:57;99227.33;;;27.17;52.26
78431;BME280;67727;50.236;22.452;2023-07-31T08:06:24;99225.35;;;27.31;53.94
78431;BME280;67727;50.236;22.452;2023-07-31T08:08:51;99223.67;;;27.56;53.33
78431;BME280;67727;50.236;22.452;2023-07-31T08:11:18;99225.00;;;27.79;52.76
78431;BME280;67727;50.236;22.452;2023-07-31T08:13:45;99227.82;;;27.92;51.84
78431;BME280;67727;50.236;22.452;2023-07-31T08:16:13;99229.98;;;28.06;51.47
78431;BME280;67727;50.236;22.452;2023-07-31T08:18:40;99229.14;;;28.13;52.20
78431;BME280;67727;50.236;22.452;2023-07-31T08:21:07;99234.91;;;28.35;52.03
78431;BME280;67727;50.236;22.452;2023-07-31T08:23:34;99235.92;;;28.59;50.55
78431;BME280;67727;50.236;22.452;2023-07-31T08:26:00;99240.24;;;28.71;49.50
78431;BME280;67727;50.236;22.452;2023-07-31T08:28:27;99243.71;;;28.74;48.67
78431;BME280;67727;50.236;22.452;2023-07-31T08:30:54;99243.02;;;28.69;49.78
78431;BME280;67727;50.236;22.452;2023-07-31T08:33:21;99243.02;;;28.54;47.32
78431;BME280;67727;50.236;22.452;2023-07-31T08:35:48;99246.95;;;28.23;49.31
78431;BME280;67727;50.236;22.452;2023-07-31T08:38:15;99246.92;;;28.10;50.00
78431;BME280;67727;50.236;22.452;2023-07-31T08:40:42;99247.61;;;28.02;50.77
78431;BME280;67727;50.236;22.452;2023-07-31T08:43:09;99249.88;;;28.22;51.39
78431;BME280;67727;50.236;22.452;2023-07-31T08:45:35;99247.31;;;28.45;51.08
78431;BME280;67727;50.236;22.452;2023-07-31T08:48:03;99246.59;;;28.50;51.09
78431;BME280;67727;50.236;22.452;2023-07-31T08:50:31;99244.70;;;28.53;50.44
78431;BME280;67727;50.236;22.452;2023-07-31T08:52:58;99242.90;;;28.60;50.76
78431;BME280;67727;50.236;22.452;2023-07-31T08:55:25;99237.97;;;28.79;51.04
78431;BME280;67727;50.236;22.452;2023-07-31T08:57:53;99242.11;;;29.00;50.76
78431;BME280;67727;50.236;22.452;2023-07-31T09:00:22;99241.09;;;29.26;50.10
78431;BME280;67727;50.236;22.452;2023-07-31T09:03:01;99244.15;;;29.46;48.53
78431;BME280;67727;50.236;22.452;2023-07-31T09:05:30;99237.79;;;29.60;48.36
78431;BME280;67727;50.236;22.452;2023-07-31T09:07:58;99238.77;;;29.76;48.20
78431;BME280;67727;50.236;22.452;2023-07-31T09:10:25;99235.79;;;29.95;47.97
78431;BME280;67727;50.236;22.452;2023-07-31T09:12:52;99233.06;;;30.13;46.87
78431;BME280;67727;50.236;22.452;2023-07-31T09:15:20;99232.27;;;30.17;46.68
78431;BME280;67727;50.236;22.452;2023-07-31T09:17:48;99236.00;;;30.13;45.82
78431;BME280;67727;50.236;22.452;2023-07-31T09:20:24;99240.04;;;30.02;45.29
78431;BME280;67727;50.236;22.452;2023-07-31T09:22:52;99242.20;;;29.91;45.61
78431;BME280;67727;50.236;22.452;2023-07-31T09:25:24;99240.44;;;29.76;44.75
78431;BME280;67727;50.236;22.452;2023-07-31T09:27:57;99236.91;;;29.63;45.56
78431;BME280;67727;50.236;22.452;2023-07-31T09:30:25;99235.46;;;29.53;46.08
78431;BME280;67727;50.236;22.452;2023-07-31T09:33:01;99238.05;;;29.56;46.39
78431;BME280;67727;50.236;22.452;2023-07-31T09:35:31;99235.19;;;29.55;45.85
78431;BME280;67727;50.236;22.452;2023-07-31T09:40:32;99236.33;;;29.49;45.85
78431;BME280;67727;50.236;22.452;2023-07-31T09:43:01;99233.14;;;29.55;45.75
78431;BME280;67727;50.236;22.452;2023-07-31T09:45:34;99233.32;;;29.66;46.54
78431;BME280;67727;50.236;22.452;2023-07-31T09:48:03;99229.98;;;29.84;45.09
78431;BME280;67727;50.236;22.452;2023-07-31T09:50:30;99233.05;;;29.94;44.67
78431;BME280;67727;50.236;22.452;2023-07-31T09:53:12;99230.58;;;30.06;44.42
78431;BME280;67727;50.236;22.452;2023-07-31T09:55:40;99236.52;;;29.93;43.37
78431;BME280;67727;50.236;22.452;2023-07-31T09:58:12;99233.80;;;29.80;45.06
78431;BME280;67727;50.236;22.452;2023-07-31T10:00:39;99232.21;;;29.78;45.65
78431;BME280;67727;50.236;22.452;2023-07-31T10:03:09;99235.05;;;29.65;43.19
78431;BME280;67727;50.236;22.452;2023-07-31T10:05:50;99229.77;;;29.44;44.88
78431;BME280;67727;50.236;22.452;2023-07-31T10:08:21;99230.45;;;29.32;45.35
78431;BME280;67727;50.236;22.452;2023-07-31T10:10:50;99231.21;;;29.35;46.73
78431;BME280;67727;50.236;22.452;2023-07-31T10:13:17;99231.40;;;29.44;45.96
78431;BME280;67727;50.236;22.452;2023-07-31T10:15:45;99235.64;;;29.49;45.99
78431;BME280;67727;50.236;22.452;2023-07-31T10:18:13;99232.30;;;29.49;45.99
78431;BME280;67727;50.236;22.452;2023-07-31T10:20:41;99232.92;;;29.46;45.28
78431;BME280;67727;50.236;22.452;2023-07-31T10:23:09;99233.29;;;29.41;44.27
78431;BME280;67727;50.236;22.452;2023-07-31T10:25:38;99233.58;;;29.16;44.47
78431;BME280;67727;50.236;22.452;2023-07-31T10:28:05;99229.74;;;28.98;45.92
78431;BME280;67727;50.236;22.452;2023-07-31T10:30:33;99229.99;;;29.05;46.23
78431;BME280;67727;50.236;22.452;2023-07-31T10:33:05;99235.38;;;29.17;45.95
78431;BME280;67727;50.236;22.452;2023-07-31T10:35:32;99235.34;;;29.20;45.33
78431;BME280;67727;50.236;22.452;2023-07-31T10:38:10;99240.48;;;29.09;44.91
78431;BME280;67727;50.236;22.452;2023-07-31T10:40:38;99238.17;;;28.96;45.23
78431;BME280;67727;50.236;22.452;2023-07-31T10:43:06;99235.91;;;28.91;45.07
78431;BME280;67727;50.236;22.452;2023-07-31T10:45:38;99235.81;;;28.78;45.06
78431;BME280;67727;50.236;22.452;2023-07-31T10:48:15;99235.23;;;28.78;46.40
78431;BME280;67727;50.236;22.452;2023-07-31T10:50:48;99237.19;;;28.95;46.81
78431;BME280;67727;50.236;22.452;2023-07-31T10:53:32;99234.66;;;29.08;46.24
78431;BME280;67727;50.236;22.452;2023-07-31T10:56:00;99229.82;;;29.13;45.22
78431;BME280;67727;50.236;22.452;2023-07-31T10:58:27;99236.38;;;28.93;44.91
78431;BME280;67727;50.236;22.452;2023-07-31T11:00:59;99231.02;;;28.66;44.85
78431;BME280;67727;50.236;22.452;2023-07-31T11:03:40;99227.02;;;28.47;46.95
78431;BME280;67727;50.236;22.452;2023-07-31T11:06:08;99223.44;;;28.41;46.57
78431;BME280;67727;50.236;22.452;2023-07-31T11:08:41;99227.02;;;28.35;46.85
78431;BME280;67727;50.236;22.452;2023-07-31T11:11:11;99229.77;;;28.22;46.46
78431;BME280;67727;50.236;22.452;2023-07-31T11:13:45;99229.80;;;28.02;47.07
78431;BME280;67727;50.236;22.452;2023-07-31T11:16:14;99235.64;;;27.90;47.34
78431;BME280;67727;50.236;22.452;2023-07-31T11:18:41;99237.70;;;27.87;48.14
78431;BME280;67727;50.236;22.452;2023-07-31T11:21:22;99240.92;;;27.89;47.89
78431;BME280;67727;50.236;22.452;2023-07-31T11:23:51;99238.02;;;27.95;47.63
78431;BME280;67727;50.236;22.452;2023-07-31T11:26:19;99235.77;;;27.98;47.80
78431;BME280;67727;50.236;22.452;2023-07-31T11:28:49;99234.00;;;27.93;47.04
78431;BME280;67727;50.236;22.452;2023-07-31T11:31:17;99227.88;;;27.97;46.98
78431;BME280;67727;50.236;22.452;2023-07-31T11:33:44;99221.02;;;28.05;47.59
78431;BME280;67727;50.236;22.452;2023-07-31T11:36:16;99214.77;;;28.14;47.73
78431;BME280;67727;50.236;22.452;2023-07-31T11:38:43;99214.71;;;28.27;47.50
78431;BME280;67727;50.236;22.452;2023-07-31T11:41:14;99209.88;;;28.41;47.38
78431;BME280;67727;50.236;22.452;2023-07-31T11:43:41;99207.85;;;28.56;46.92
78431;BME280;67727;50.236;22.452;2023-07-31T11:46:09;99209.45;;;28.69;46.75
78431;BME280;67727;50.236;22.452;2023-07-31T11:48:37;99210.74;;;28.73;46.67
78431;BME280;67727;50.236;22.452;2023-07-31T11:51:06;99212.27;;;28.61;44.46
78431;BME280;67727;50.236;22.452;2023-07-31T11:53:41;99211.42;;;28.37;44.78
78431;BME280;67727;50.236;22.452;2023-07-31T11:56:13;99207.72;;;28.15;45.53
78431;BME280;67727;50.236;22.452;2023-07-31T11:58:42;99207.63;;;28.09;45.68
78431;BME280;67727;50.236;22.452;2023-07-31T12:01:10;99203.55;;;27.98;46.12
78431;BME280;67727;50.236;22.452;2023-07-31T12:03:38;99205.88;;;27.95;46.91
78431;BME280;67727;50.236;22.452;2023-07-31T12:06:07;99203.73;;;27.95;47.04
78431;BME280;67727;50.236;22.452;2023-07-31T12:08:34;99201.52;;;27.88;46.17
78431;BME280;67727;50.236;22.452;2023-07-31T12:11:05;99200.15;;;27.67;46.36
78431;BME280;67727;50.236;22.452;2023-07-31T12:13:33;99202.92;;;27.49;47.16
78431;BME280;67727;50.236;22.452;2023-07-31T12:16:01;99200.36;;;27.37;48.37
78431;BME280;67727;50.236;22.452;2023-07-31T12:18:39;99203.86;;;27.34;49.58
78431;BME280;67727;50.236;22.452;2023-07-31T12:21:08;99199.94;;;27.37;49.50
78431;BME280;67727;50.236;22.452;2023-07-31T12:23:38;99195.98;;;27.35;48.07
78431;BME280;67727;50.236;22.452;2023-07-31T12:28:37;99197.29;;;27.23;48.42
78431;BME280;67727;50.236;22.452;2023-07-31T12:31:05;99197.52;;;27.31;48.27
78431;BME280;67727;50.236;22.452;2023-07-31T12:33:34;99192.01;;;27.42;46.64
78431;BME280;67727;50.236;22.452;2023-07-31T12:36:04;99187.67;;;27.44;46.81
78431;BME280;67727;50.236;22.452;2023-07-31T12:38:31;99185.33;;;27.47;46.99
78431;BME280;67727;50.236;22.452;2023-07-31T12:40:57;99186.80;;;27.47;46.53
78431;BME280;67727;50.236;22.452;2023-07-31T12:43:24;99181.73;;;27.46;47.00
78431;BME280;67727;50.236;22.452;2023-07-31T12:45:51;99178.63;;;27.47;47.40
78431;BME280;67727;50.236;22.452;2023-07-31T12:48:18;99176.23;;;27.47;47.54
78431;BME280;67727;50.236;22.452;2023-07-31T12:50:44;99173.11;;;27.45;47.12
78431;BME280;67727;50.236;22.452;2023-07-31T12:53:12;99174.05;;;27.38;47.09
78431;BME280;67727;50.236;22.452;2023-07-31T12:55:39;99169.14;;;27.32;46.55
78431;BME280;67727;50.236;22.452;2023-07-31T12:58:06;99165.86;;;27.28;47.26
78431;BME280;67727;50.236;22.452;2023-07-31T13:00:32;99169.56;;;27.21;46.19
78431;BME280;67727;50.236;22.452;2023-07-31T13:03:00;99172.29;;;27.04;46.16